createdAt,value
2023-12-30T00:00:49.269Z,1.88
2023-12-30T00:03:16.202Z,2.10
2023-12-30T00:05:43.224Z,1.65
2023-12-30T00:08:10.493Z,2.93
2023-12-30T00:10:37.756Z,2.35
2023-12-30T00:13:05.144Z,1.73
2023-12-30T00:15:32.518Z,2.70
2023-12-30T00:17:59.832Z,1.40
2023-12-30T00:20:27.190Z,1.80
2023-12-30T00:22:54.137Z,2.08
2023-12-30T00:25:23.118Z,1.80
2023-12-30T00:27:52.976Z,1.50
2023-12-30T00:30:20.403Z,1.85
2023-12-30T00:32:47.930Z,1.87
2023-12-30T00:35:15.271Z,2.15
2023-12-30T00:37:42.243Z,1.80
2023-12-30T00:40:09.667Z,2.28
2023-12-30T00:42:37.163Z,1.83
2023-12-30T00:45:04.878Z,1.70
2023-12-30T00:47:31.742Z,1.90
2023-12-30T00:49:59.088Z,1.85
2023-12-30T00:52:26.581Z,2.13
2023-12-30T00:54:53.863Z,1.80
2023-12-30T00:57:21.132Z,1.83
2023-12-30T00:59:49.635Z,1.55
2023-12-30T01:02:16.426Z,1.60
2023-12-30T01:04:44.378Z,2.33
2023-12-30T01:07:12.175Z,1.80
2023-12-30T01:09:39.459Z,1.73
2023-12-30T01:12:06.961Z,1.48
2023-12-30T01:14:34.387Z,1.85
2023-12-30T01:17:01.622Z,1.67
2023-12-30T01:19:29.502Z,1.88
2023-12-30T01:21:56.798Z,1.77
2023-12-30T01:24:24.062Z,2.50
2023-12-30T01:26:51.375Z,1.80
2023-12-30T01:29:18.629Z,1.52
2023-12-30T01:31:47.680Z,1.63
2023-12-30T01:34:15.213Z,1.93
2023-12-30T01:36:42.618Z,2.67
2023-12-30T01:39:09.457Z,2.20
2023-12-30T01:41:36.698Z,2.08
2023-12-30T01:44:03.957Z,1.98
2023-12-30T01:46:31.715Z,1.97
2023-12-30T01:48:59.132Z,1.73
2023-12-30T01:51:27.011Z,1.90
2023-12-30T01:53:54.664Z,1.40
2023-12-30T01:56:23.912Z,1.83
2023-12-30T01:58:52.813Z,1.77
2023-12-30T02:01:22.987Z,1.70
2023-12-30T02:03:51.037Z,1.55
2023-12-30T02:06:18.487Z,1.95
2023-12-30T02:08:45.856Z,1.73
2023-12-30T02:11:15.171Z,1.77
2023-12-30T02:13:45.996Z,1.70
2023-12-30T02:16:13.460Z,1.90
2023-12-30T02:18:41.085Z,1.50
2023-12-30T02:21:08.527Z,1.63
2023-12-30T02:23:35.789Z,1.60
2023-12-30T02:26:03.404Z,1.83
2023-12-30T02:28:30.794Z,1.60
2023-12-30T02:30:58.192Z,1.50
2023-12-30T02:33:25.229Z,1.58
2023-12-30T02:35:53.463Z,1.53
2023-12-30T02:38:21.133Z,2.30
2023-12-30T02:40:49.163Z,1.80
2023-12-30T02:43:16.464Z,1.95
2023-12-30T02:45:43.856Z,1.83
2023-12-30T02:48:11.648Z,1.40
2023-12-30T02:50:39.673Z,2.00
2023-12-30T02:53:06.889Z,1.80
2023-12-30T02:55:34.566Z,1.80
2023-12-30T02:58:01.899Z,1.88
2023-12-30T03:00:29.166Z,2.27
2023-12-30T03:02:56.476Z,1.60
2023-12-30T03:05:23.821Z,1.70
2023-12-30T03:07:50.782Z,1.90
2023-12-30T03:10:17.701Z,1.45
2023-12-30T03:12:45.013Z,2.07
2023-12-30T03:15:12.336Z,1.90
2023-12-30T03:17:39.268Z,1.88
2023-12-30T03:20:11.001Z,1.75
2023-12-30T03:22:38.992Z,1.98
2023-12-30T03:25:06.918Z,1.80
2023-12-30T03:27:33.801Z,1.52
2023-12-30T03:30:01.068Z,1.70
2023-12-30T03:32:29.545Z,1.88
2023-12-30T03:34:57.480Z,1.42
2023-12-30T03:37:25.246Z,2.20
2023-12-30T03:39:53.260Z,1.77
2023-12-30T03:42:20.668Z,1.70
2023-12-30T03:44:48.012Z,1.80
2023-12-30T03:47:15.251Z,1.90
2023-12-30T03:49:42.632Z,2.00
2023-12-30T03:52:09.988Z,1.83
2023-12-30T03:54:37.925Z,1.90
2023-12-30T03:57:05.265Z,1.77
2023-12-30T03:59:32.490Z,2.08
2023-12-30T04:01:59.946Z,1.70
2023-12-30T04:04:27.313Z,2.15
2023-12-30T04:06:54.613Z,1.85
2023-12-30T04:09:21.924Z,1.80
2023-12-30T04:11:49.194Z,1.65
2023-12-30T04:14:16.642Z,1.43
2023-12-30T04:16:43.880Z,1.92
2023-12-30T04:19:11.256Z,1.88
2023-12-30T04:21:38.693Z,1.73
2023-12-30T04:24:05.889Z,2.20
2023-12-30T04:26:33.140Z,1.57
2023-12-30T04:29:01.493Z,1.63
2023-12-30T04:31:28.810Z,1.90
2023-12-30T04:33:56.216Z,2.05
2023-12-30T04:36:24.384Z,1.67
2023-12-30T04:38:52.878Z,1.60
2023-12-30T04:41:22.294Z,1.52
2023-12-30T04:43:49.740Z,1.55
2023-12-30T04:46:16.981Z,1.75
2023-12-30T04:48:44.340Z,1.52
2023-12-30T04:51:11.904Z,1.80
2023-12-30T04:53:39.758Z,1.83
2023-12-30T04:56:09.488Z,2.00
2023-12-30T04:58:36.844Z,1.60
2023-12-30T05:01:04.603Z,2.35
2023-12-30T05:03:31.892Z,1.70
2023-12-30T05:05:59.119Z,1.73
2023-12-30T05:08:26.320Z,1.77
2023-12-30T05:10:53.527Z,2.00
2023-12-30T05:13:21.666Z,1.90
2023-12-30T05:15:50.957Z,1.70
2023-12-30T05:18:18.492Z,2.15
2023-12-30T05:20:45.808Z,2.22
2023-12-30T05:23:13.050Z,1.55
2023-12-30T05:25:40.294Z,2.33
2023-12-30T05:28:07.510Z,2.20
2023-12-30T05:30:34.823Z,2.13
2023-12-30T05:33:02.379Z,2.38
2023-12-30T05:35:29.836Z,2.50
2023-12-30T05:37:57.171Z,2.10
2023-12-30T05:40:24.592Z,2.40
2023-12-30T05:42:51.865Z,1.80
2023-12-30T05:45:19.162Z,2.00
2023-12-30T05:47:46.563Z,1.75
2023-12-30T05:50:14.130Z,1.88
2023-12-30T05:52:41.624Z,2.03
2023-12-30T05:55:09.184Z,1.92
2023-12-30T05:57:36.481Z,1.60
2023-12-30T06:00:04.228Z,2.20
2023-12-30T06:02:39.757Z,2.03
2023-12-30T06:05:07.443Z,2.00
2023-12-30T06:07:35.919Z,2.53
2023-12-30T06:10:02.843Z,2.13
2023-12-30T06:12:30.103Z,1.92
2023-12-30T06:14:57.411Z,2.03
2023-12-30T06:17:24.191Z,2.00
2023-12-30T06:19:51.830Z,2.33
2023-12-30T06:22:18.707Z,2.10
2023-12-30T06:24:46.117Z,2.33
2023-12-30T06:27:13.394Z,2.30
2023-12-30T06:29:40.660Z,1.90
2023-12-30T06:32:08.595Z,2.50
2023-12-30T06:34:36.183Z,2.72
2023-12-30T06:37:03.677Z,2.45
2023-12-30T06:39:30.524Z,1.95
2023-12-30T06:42:01.657Z,2.33
2023-12-30T06:44:29.378Z,2.42
2023-12-30T06:46:56.657Z,2.15
2023-12-30T06:49:24.046Z,1.85
2023-12-30T06:51:51.397Z,2.08
2023-12-30T06:54:18.230Z,1.80
2023-12-30T06:56:45.537Z,1.80
2023-12-30T06:59:15.474Z,2.05
2023-12-30T07:01:43.140Z,2.17
2023-12-30T07:04:11.180Z,2.50
2023-12-30T07:06:38.446Z,1.93
2023-12-30T07:09:06.669Z,1.90
2023-12-30T07:11:33.863Z,3.28
2023-12-30T07:14:01.132Z,1.77
2023-12-30T07:16:28.523Z,2.15
2023-12-30T07:18:56.044Z,1.77
2023-12-30T07:21:23.408Z,1.98
2023-12-30T07:23:50.572Z,1.80
2023-12-30T07:26:17.877Z,2.05
2023-12-30T07:28:45.072Z,1.80
2023-12-30T07:31:12.663Z,2.53
2023-12-30T07:33:39.639Z,1.80
2023-12-30T07:36:07.392Z,2.33
2023-12-30T07:38:34.712Z,2.55
2023-12-30T07:41:02.008Z,2.38
2023-12-30T07:43:29.277Z,2.30
2023-12-30T07:45:56.654Z,2.03
2023-12-30T07:48:24.223Z,2.58
2023-12-30T07:50:51.453Z,2.35
2023-12-30T07:53:18.686Z,2.65
2023-12-30T07:55:46.087Z,3.00
2023-12-30T07:58:13.939Z,2.70
2023-12-30T08:00:41.323Z,2.58
2023-12-30T08:03:08.569Z,1.67
2023-12-30T08:05:35.885Z,1.77
2023-12-30T08:08:04.750Z,2.60
2023-12-30T08:10:33.841Z,2.30
2023-12-30T08:13:01.518Z,2.15
2023-12-30T08:15:29.453Z,3.40
2023-12-30T08:17:56.813Z,2.10
2023-12-30T08:20:24.094Z,2.00
2023-12-30T08:22:51.888Z,2.58
2023-12-30T08:25:19.081Z,2.67
2023-12-30T08:27:46.376Z,2.60
2023-12-30T08:30:14.223Z,2.22
2023-12-30T08:32:41.489Z,2.57
2023-12-30T08:35:10.031Z,2.95
2023-12-30T08:37:37.511Z,2.72
2023-12-30T08:40:10.563Z,2.97
2023-12-30T08:42:37.917Z,2.53
2023-12-30T08:45:08.699Z,2.37
2023-12-30T08:47:36.365Z,2.78
2023-12-30T08:50:05.155Z,3.28
2023-12-30T08:52:32.750Z,3.03
2023-12-30T08:55:00.509Z,3.72
2023-12-30T08:57:27.979Z,3.23
2023-12-30T08:59:55.586Z,2.53
2023-12-30T09:02:24.139Z,3.35
2023-12-30T09:04:51.822Z,2.88
2023-12-30T09:07:19.303Z,3.05
2023-12-30T09:09:46.593Z,3.40
2023-12-30T09:12:13.828Z,2.90
2023-12-30T09:14:41.045Z,2.75
2023-12-30T09:17:08.889Z,2.75
2023-12-30T09:19:36.269Z,3.30
2023-12-30T09:22:03.987Z,3.27
2023-12-30T09:24:31.286Z,2.58
2023-12-30T09:26:58.543Z,3.40
2023-12-30T09:29:25.776Z,3.45
2023-12-30T09:31:53.378Z,2.72
2023-12-30T09:34:30.006Z,4.03
2023-12-30T09:37:05.848Z,3.30
2023-12-30T09:39:33.109Z,3.25
2023-12-30T09:42:00.470Z,3.60
2023-12-30T09:44:27.906Z,3.05
2023-12-30T09:46:55.590Z,3.13
2023-12-30T09:49:23.324Z,3.47
2023-12-30T09:51:50.777Z,3.33
2023-12-30T09:54:18.055Z,2.92
2023-12-30T09:56:46.055Z,3.10
2023-12-30T09:59:13.773Z,2.40
2023-12-30T10:01:41.387Z,4.07
2023-12-30T10:04:08.809Z,2.63
2023-12-30T10:06:36.192Z,2.72
2023-12-30T10:09:03.796Z,3.40
2023-12-30T10:11:31.356Z,2.57
2023-12-30T10:13:58.648Z,2.75
2023-12-30T10:16:25.992Z,2.78
2023-12-30T10:18:54.225Z,5.50
2023-12-30T10:21:21.561Z,3.60
2023-12-30T10:23:52.484Z,4.57
2023-12-30T10:26:20.503Z,2.58
2023-12-30T10:28:47.928Z,2.92
2023-12-30T10:31:18.184Z,3.00
2023-12-30T10:33:49.095Z,2.97
2023-12-30T10:36:17.538Z,2.67
2023-12-30T10:38:45.194Z,2.42
2023-12-30T10:41:13.438Z,2.92
2023-12-30T10:43:40.858Z,2.25
2023-12-30T10:46:12.787Z,3.45
2023-12-30T10:48:57.121Z,3.00
2023-12-30T10:51:26.308Z,2.97
2023-12-30T10:54:07.940Z,3.03
2023-12-30T10:56:41.481Z,5.05
2023-12-30T10:59:08.918Z,3.42
2023-12-30T11:01:37.585Z,3.57
2023-12-30T11:04:12.705Z,2.92
2023-12-30T11:06:58.139Z,3.75
2023-12-30T11:09:32.221Z,3.38
2023-12-30T11:12:03.637Z,3.13
2023-12-30T11:14:32.620Z,4.13
2023-12-30T11:16:59.925Z,5.00
2023-12-30T11:19:30.208Z,3.45
2023-12-30T11:22:00.485Z,3.65
2023-12-30T11:24:28.292Z,4.18
2023-12-30T11:26:56.419Z,4.23
2023-12-30T11:29:27.941Z,3.33
2023-12-30T11:31:56.649Z,3.35
2023-12-30T11:34:25.604Z,4.32
2023-12-30T11:36:54.150Z,3.42
2023-12-30T11:39:33.157Z,3.43
2023-12-30T11:42:00.802Z,4.32
2023-12-30T11:44:31.185Z,3.38
2023-12-30T11:46:59.645Z,5.30
2023-12-30T11:49:27.566Z,4.60
2023-12-30T11:52:05.427Z,5.10
2023-12-30T11:54:36.965Z,5.30
2023-12-30T11:57:07.669Z,5.53
2023-12-30T11:59:35.022Z,4.90
2023-12-30T12:02:09.713Z,6.22
2023-12-30T12:04:37.485Z,4.77
2023-12-30T12:07:04.868Z,6.68
2023-12-30T12:09:32.110Z,6.55
2023-12-30T12:11:59.413Z,5.13
2023-12-30T12:14:27.142Z,7.93
2023-12-30T12:16:54.056Z,6.37
2023-12-30T12:19:21.432Z,7.80
2023-12-30T12:21:49.077Z,6.93
2023-12-30T12:24:16.113Z,7.40
2023-12-30T12:26:43.160Z,8.25
2023-12-30T12:29:10.379Z,8.10
2023-12-30T12:31:37.639Z,7.38
2023-12-30T12:34:24.008Z,9.70
2023-12-30T12:36:51.423Z,7.68
2023-12-30T12:39:18.973Z,9.90
2023-12-30T12:41:46.630Z,8.63
2023-12-30T12:44:13.858Z,8.73
2023-12-30T12:46:41.219Z,10.05
2023-12-30T12:49:08.374Z,9.88
2023-12-30T12:51:38.062Z,7.53
2023-12-30T12:54:05.402Z,7.53
2023-12-30T12:56:33.300Z,7.03
2023-12-30T12:59:00.530Z,8.07
2023-12-30T13:01:28.426Z,9.57
2023-12-30T13:03:57.097Z,9.52
2023-12-30T13:06:24.438Z,8.93
2023-12-30T13:08:53.483Z,8.38
2023-12-30T13:11:37.747Z,9.43
2023-12-30T13:14:10.597Z,8.68
2023-12-30T13:16:37.902Z,8.15
2023-12-30T13:19:05.293Z,7.60
2023-12-30T13:21:34.106Z,6.18
2023-12-30T13:24:01.330Z,7.22
2023-12-30T13:26:28.708Z,4.75
2023-12-30T13:28:55.988Z,6.72
2023-12-30T13:31:27.091Z,5.33
2023-12-30T13:33:55.503Z,4.75
2023-12-30T13:36:26.532Z,7.80
2023-12-30T13:39:00.828Z,5.47
2023-12-30T13:41:27.692Z,3.67
2023-12-30T13:43:55.660Z,4.33
2023-12-30T13:46:41.889Z,4.45
2023-12-30T13:49:44.012Z,2.83
2023-12-30T13:52:11.405Z,2.78
2023-12-30T13:54:43.029Z,4.18
2023-12-30T13:57:14.178Z,3.83
2023-12-30T13:59:47.500Z,3.90
2023-12-30T14:02:19.460Z,3.67
2023-12-30T14:04:58.396Z,3.58
2023-12-30T14:07:28.939Z,2.97
2023-12-30T14:10:00.554Z,3.00
2023-12-30T14:12:29.706Z,4.40
2023-12-30T14:14:57.674Z,2.85
2023-12-30T14:17:31.641Z,3.70
2023-12-30T14:20:01.256Z,3.42
2023-12-30T14:22:28.847Z,3.67
2023-12-30T14:24:57.639Z,3.85
2023-12-30T14:27:25.071Z,3.53
2023-12-30T14:29:59.776Z,3.90
2023-12-30T14:32:27.112Z,5.15
2023-12-30T14:34:54.394Z,4.13
2023-12-30T14:37:21.755Z,4.00
2023-12-30T14:39:49.201Z,4.90
2023-12-30T14:42:18.161Z,3.80
2023-12-30T14:44:45.453Z,5.55
2023-12-30T14:47:13.200Z,3.90
2023-12-30T14:49:40.537Z,3.78
2023-12-30T14:52:07.431Z,4.60
2023-12-30T14:54:34.300Z,4.55
2023-12-30T14:57:02.166Z,4.70
2023-12-30T14:59:29.503Z,5.40
2023-12-30T15:01:58.211Z,5.13
2023-12-30T15:04:25.769Z,5.00
2023-12-30T15:06:54.161Z,7.03
2023-12-30T15:09:22.645Z,5.20
2023-12-30T15:11:50.226Z,4.67
2023-12-30T15:14:17.438Z,5.28
2023-12-30T15:16:44.337Z,6.00
2023-12-30T15:19:11.705Z,4.85
2023-12-30T15:21:39.066Z,4.40
2023-12-30T15:24:06.297Z,3.73
2023-12-30T15:26:33.575Z,5.35
2023-12-30T15:29:00.782Z,5.40
2023-12-30T15:31:28.161Z,6.82
2023-12-30T15:33:55.109Z,5.35
2023-12-30T15:36:23.272Z,4.23
2023-12-30T15:38:50.926Z,2.97
2023-12-30T15:41:22.217Z,4.72
2023-12-30T15:43:49.652Z,4.78
2023-12-30T15:46:16.964Z,4.00
2023-12-30T15:48:44.365Z,4.47
2023-12-30T15:51:11.790Z,5.20
2023-12-30T15:53:40.143Z,4.20
2023-12-30T15:56:07.665Z,4.40
2023-12-30T15:58:35.308Z,10.40
2023-12-30T16:01:02.960Z,3.77
2023-12-30T16:03:30.235Z,5.05
2023-12-30T16:05:57.562Z,4.70
2023-12-30T16:08:24.955Z,4.50
2023-12-30T16:10:51.936Z,3.80
2023-12-30T16:13:19.295Z,3.37
2023-12-30T16:15:50.990Z,3.95
2023-12-30T16:18:18.124Z,3.60
2023-12-30T16:20:46.302Z,3.40
2023-12-30T16:23:13.611Z,3.83
2023-12-30T16:25:41.439Z,3.27
2023-12-30T16:28:08.416Z,3.63
2023-12-30T16:30:35.780Z,3.63
2023-12-30T16:33:03.253Z,4.05
2023-12-30T16:35:30.686Z,2.95
2023-12-30T16:37:57.956Z,3.43
2023-12-30T16:40:28.327Z,3.10
2023-12-30T16:42:55.950Z,3.92
2023-12-30T16:45:22.861Z,3.30
2023-12-30T16:47:50.224Z,4.10
2023-12-30T16:50:19.115Z,4.27
2023-12-30T16:52:46.584Z,3.83
2023-12-30T16:55:14.215Z,3.88
2023-12-30T16:57:41.518Z,4.57
2023-12-30T17:00:10.926Z,3.10
2023-12-30T17:02:38.835Z,4.10
2023-12-30T17:05:07.006Z,4.60
2023-12-30T17:07:34.587Z,3.03
2023-12-30T17:10:05.641Z,3.10
2023-12-30T17:12:33.042Z,2.90
2023-12-30T17:15:00.417Z,3.00
2023-12-30T17:17:27.762Z,2.72
2023-12-30T17:19:55.051Z,2.30
2023-12-30T17:22:23.440Z,3.40
2023-12-30T17:24:51.013Z,2.92
2023-12-30T17:27:18.319Z,2.23
2023-12-30T17:29:45.172Z,2.85
2023-12-30T17:32:12.560Z,3.28
2023-12-30T17:34:39.619Z,3.35
2023-12-30T17:37:07.417Z,3.08
2023-12-30T17:39:35.091Z,3.00
2023-12-30T17:42:02.501Z,3.58
2023-12-30T17:44:32.901Z,2.75
2023-12-30T17:47:00.566Z,3.15
2023-12-30T17:49:27.544Z,4.35
2023-12-30T17:51:54.798Z,2.90
2023-12-30T17:54:21.648Z,2.75
2023-12-30T17:56:48.930Z,2.50
2023-12-30T17:59:17.277Z,2.92
2023-12-30T18:01:44.667Z,2.88
2023-12-30T18:04:13.020Z,2.70
2023-12-30T18:06:40.355Z,2.22
2023-12-30T18:09:07.672Z,2.40
2023-12-30T18:11:37.411Z,2.20
2023-12-30T18:14:04.783Z,2.90
2023-12-30T18:16:32.110Z,3.40
2023-12-30T18:18:59.424Z,3.03
2023-12-30T18:21:26.773Z,2.92
2023-12-30T18:23:54.009Z,3.10
2023-12-30T18:26:21.345Z,2.92
2023-12-30T18:28:48.337Z,3.00
2023-12-30T18:31:15.872Z,3.45
2023-12-30T18:33:43.267Z,3.20
2023-12-30T18:36:10.583Z,4.25
2023-12-30T18:38:37.913Z,5.95
2023-12-30T18:41:05.267Z,2.87
2023-12-30T18:43:32.265Z,4.05
2023-12-30T18:46:00.646Z,3.72
2023-12-30T18:48:27.687Z,2.60
2023-12-30T18:50:55.156Z,2.60
2023-12-30T18:53:22.384Z,2.60
2023-12-30T18:55:49.720Z,3.65
2023-12-30T18:58:16.999Z,2.53
2023-12-30T19:00:44.299Z,2.40
2023-12-30T19:03:11.509Z,2.72
2023-12-30T19:05:38.941Z,3.03
2023-12-30T19:08:06.667Z,3.40
2023-12-30T19:10:34.053Z,4.05
2023-12-30T19:13:01.665Z,3.20
2023-12-30T19:15:29.101Z,4.35
2023-12-30T19:17:56.494Z,3.27
2023-12-30T19:20:23.872Z,3.10
2023-12-30T19:22:51.134Z,3.50
2023-12-30T19:25:18.011Z,3.50
2023-12-30T19:27:46.858Z,2.45
2023-12-30T19:30:14.356Z,3.30
2023-12-30T19:32:41.630Z,3.03
2023-12-30T19:35:11.308Z,3.03
2023-12-30T19:37:43.252Z,3.20
2023-12-30T19:40:11.196Z,3.00
2023-12-30T19:42:38.451Z,3.00
2023-12-30T19:45:06.897Z,10.45
2023-12-30T19:47:35.252Z,3.72
2023-12-30T19:50:03.710Z,2.50
2023-12-30T19:52:30.991Z,2.85
2023-12-30T19:54:58.215Z,3.37
2023-12-30T19:57:25.443Z,2.95
2023-12-30T19:59:52.657Z,2.88
2023-12-30T20:02:20.439Z,3.28
2023-12-30T20:04:47.242Z,2.38
2023-12-30T20:07:14.487Z,3.00
2023-12-30T20:09:43.311Z,3.45
2023-12-30T20:12:11.834Z,2.53
2023-12-30T20:14:39.534Z,3.38
2023-12-30T20:17:06.766Z,3.20
2023-12-30T20:19:35.659Z,3.53
2023-12-30T20:22:03.010Z,2.72
2023-12-30T20:24:31.024Z,3.20
2023-12-30T20:26:58.352Z,2.72
2023-12-30T20:29:25.307Z,2.58
2023-12-30T20:31:56.168Z,2.83
2023-12-30T20:34:25.234Z,2.45
2023-12-30T20:36:52.531Z,5.53
2023-12-30T20:39:19.914Z,3.00
2023-12-30T20:41:47.130Z,2.78
2023-12-30T20:44:14.422Z,2.47
2023-12-30T20:46:45.697Z,3.03
2023-12-30T20:49:13.462Z,2.35
2023-12-30T20:51:41.448Z,2.95
2023-12-30T20:54:08.715Z,2.97
2023-12-30T20:56:35.530Z,2.53
2023-12-30T20:59:02.787Z,2.80
2023-12-30T21:01:31.647Z,2.75
2023-12-30T21:03:59.388Z,3.00
2023-12-30T21:06:28.487Z,3.60
2023-12-30T21:08:55.758Z,2.40
2023-12-30T21:11:23.077Z,3.30
2023-12-30T21:13:50.391Z,3.15
2023-12-30T21:16:18.716Z,3.22
2023-12-30T21:18:48.040Z,2.97
2023-12-30T21:21:16.393Z,3.50
2023-12-30T21:23:43.329Z,2.42
2023-12-30T21:26:10.661Z,3.30
2023-12-30T21:28:38.028Z,2.90
2023-12-30T21:31:05.295Z,3.08
2023-12-30T21:33:32.877Z,2.83
2023-12-30T21:36:00.365Z,3.35
2023-12-30T21:38:28.367Z,3.60
2023-12-30T21:40:55.646Z,4.43
2023-12-30T21:43:23.486Z,3.38
2023-12-30T21:45:52.566Z,3.20
2023-12-30T21:48:19.751Z,3.83
2023-12-30T21:50:47.217Z,2.40
2023-12-30T21:53:14.598Z,2.70
2023-12-30T21:55:42.344Z,2.17
2023-12-30T21:58:09.714Z,2.80
2023-12-30T22:00:39.363Z,2.28
2023-12-30T22:03:07.775Z,2.85
2023-12-30T22:05:36.306Z,2.92
2023-12-30T22:08:03.394Z,2.78
2023-12-30T22:10:30.280Z,2.67
2023-12-30T22:12:57.527Z,3.03
2023-12-30T22:15:24.793Z,2.90
2023-12-30T22:17:52.080Z,3.05
2023-12-30T22:20:20.379Z,1.98
2023-12-30T22:22:47.724Z,2.20
2023-12-30T22:25:15.018Z,3.42
2023-12-30T22:27:42.291Z,3.20
2023-12-30T22:30:09.814Z,2.40
2023-12-30T22:32:37.544Z,3.00
2023-12-30T22:35:15.862Z,2.90
2023-12-30T22:37:43.632Z,2.35
2023-12-30T22:40:11.157Z,2.45
2023-12-30T22:42:41.165Z,2.70
2023-12-30T22:45:09.295Z,2.08
2023-12-30T22:47:39.160Z,2.70
2023-12-30T22:50:07.222Z,2.90
2023-12-30T22:52:34.809Z,2.72
2023-12-30T22:55:02.344Z,2.15
2023-12-30T22:57:29.655Z,2.60
2023-12-30T22:59:56.997Z,2.43
2023-12-30T23:02:24.323Z,2.47
2023-12-30T23:04:51.743Z,2.50
2023-12-30T23:07:19.042Z,2.00
2023-12-30T23:09:46.313Z,2.70
2023-12-30T23:12:17.450Z,2.57
2023-12-30T23:14:44.920Z,1.98
2023-12-30T23:17:15.934Z,2.67
2023-12-30T23:19:44.226Z,2.00
2023-12-30T23:22:11.609Z,2.38
2023-12-30T23:24:39.187Z,2.70
2023-12-30T23:27:06.728Z,2.80
2023-12-30T23:29:34.311Z,2.28
2023-12-30T23:32:01.552Z,2.20
2023-12-30T23:34:38.555Z,1.73
2023-12-30T23:37:10.230Z,2.60
2023-12-30T23:39:37.440Z,2.50
2023-12-30T23:42:04.900Z,2.63
2023-12-30T23:44:32.273Z,2.28
2023-12-30T23:46:59.636Z,2.60
2023-12-30T23:49:26.912Z,1.77
2023-12-30T23:51:54.151Z,2.47
2023-12-30T23:54:21.416Z,1.65
2023-12-30T23:56:48.654Z,2.15
2023-12-30T23:59:18.454Z,2.03
